Time;durP1;ratioP1;P1;durP2;ratioP2;P2;SDS_P1;SDS_P2;PMS_P1;PMS_P2;Temp;Humidity;BMP_temperature;BMP_pressure;BME280_temperature;BME280_humidity;BME280_pressure;Samples;Min_cycle;Max_cycle;Signal;HPM_P1;HPM_P2
2023/12/22 00:01:19;;;;;;;;;;;4.10;55.30;;;;;;5165060;23;19927;-85
2023/12/22 00:03:39;;;;;;;;;;;4.10;55.90;;;;;;5163353;23;20076;-84
2023/12/22 00:06:00;;;;;;;;;;;4.10;56.60;;;;;;5160225;23;19930;-85
2023/12/22 00:08:20;;;;;;;;;;;4.00;57.10;;;;;;5162226;23;19903;-84
2023/12/22 00:10:41;;;;;;;;;;;4.00;57.60;;;;;;5161875;23;19934;-84
2023/12/22 00:13:02;;;;;;;;;;;4.00;57.80;;;;;;5162123;23;19979;-85
2023/12/22 00:15:22;;;;;;;;;;;4.10;58.20;;;;;;5163795;23;19919;-83
2023/12/22 00:17:23;;;;;;;;;;;4.10;58.20;;;;;;5164325;23;20433;-84
2023/12/22 00:19:23;;;;;;;;;;;4.00;58.10;;;;;;5159613;23;19904;-84
2023/12/22 00:21:24;;;;;;;;;;;4.00;58.10;;;;;;5162057;23;19908;-82
2023/12/22 00:23:24;;;;;;;;;;;4.00;58.10;;;;;;5158109;23;19918;-83
2023/12/22 00:25:29;;;;;;;;;;;4.00;58.30;;;;;;5159858;23;20298;-84
2023/12/22 00:27:49;;;;;;;;;;;4.00;58.60;;;;;;5134677;23;19931;-84
2023/12/22 00:30:10;;;;;;;;;;;4.00;58.80;;;;;;5165899;23;19911;-85
2023/12/22 00:32:11;;;;;;;;;;;4.10;58.90;;;;;;5159629;23;19904;-82
2023/12/22 00:34:31;;;;;;;;;;;4.10;58.50;;;;;;5138474;23;19904;-84
2023/12/22 00:36:51;;;;;;;;;;;4.10;58.80;;;;;;5161599;23;19987;-84
2023/12/22 00:39:12;;;;;;;;;;;4.10;58.90;;;;;;5159392;23;19908;-83
2023/12/22 00:41:33;;;;;;;;;;;4.20;59.20;;;;;;5159902;23;19942;-82
2023/12/22 00:43:53;;;;;;;;;;;4.20;59.60;;;;;;5160842;23;19908;-84
2023/12/22 00:46:14;;;;;;;;;;;4.20;59.90;;;;;;5158120;23;19908;-84
2023/12/22 00:48:34;;;;;;;;;;;4.20;60.00;;;;;;5159099;23;19908;-83
2023/12/22 00:50:38;;;;;;;;;;;4.20;60.70;;;;;;5135179;23;19896;-83
2023/12/22 00:52:59;;;;;;;;;;;4.20;61.00;;;;;;5160277;23;19970;-83
2023/12/22 00:55:19;;;;;;;;;;;4.20;61.20;;;;;;5160698;23;19900;-83
2023/12/22 00:57:40;;;;;;;;;;;4.20;61.40;;;;;;5160099;23;19952;-84
2023/12/22 01:00:01;;;;;;;;;;;4.20;62.20;;;;;;5161285;23;19914;-84
2023/12/22 01:02:21;;;;;;;;;;;4.20;61.20;;;;;;5162081;23;19927;-84
2023/12/22 01:04:43;;;;;;;;;;;4.20;61.00;;;;;;5157735;23;19958;-82
2023/12/22 01:07:03;;;;;;;;;;;4.10;60.10;;;;;;5159026;23;19908;-85
2023/12/22 01:09:24;;;;;;;;;;;4.20;60.20;;;;;;5160473;23;19907;-84
2023/12/22 01:11:45;;;;;;;;;;;4.20;60.10;;;;;;5160976;23;19918;-85
2023/12/22 01:13:45;;;;;;;;;;;4.30;60.40;;;;;;5135461;23;19903;-83
2023/12/22 01:15:46;;;;;;;;;;;4.30;60.50;;;;;;5159360;23;20023;-83
2023/12/22 01:17:47;;;;;;;;;;;4.20;60.60;;;;;;5133083;23;19907;-84
2023/12/22 01:19:48;;;;;;;;;;;4.30;60.80;;;;;;5159080;23;19908;-84
2023/12/22 01:21:49;;;;;;;;;;;4.30;60.40;;;;;;5158638;23;20196;-84
2023/12/22 01:23:50;;;;;;;;;;;4.30;59.60;;;;;;5108100;23;19975;-83
2023/12/22 01:25:50;;;;;;;;;;;4.20;59.00;;;;;;5158414;23;19907;-84
2023/12/22 01:27:52;;;;;;;;;;;4.20;58.80;;;;;;5159223;23;20499;-85
2023/12/22 01:29:52;;;;;;;;;;;4.20;58.20;;;;;;5132481;23;19914;-85
2023/12/22 01:31:55;;;;;;;;;;;4.10;57.60;;;;;;5108910;23;19914;-85
2023/12/22 01:33:58;;;;;;;;;;;4.30;57.90;;;;;;5133957;23;19904;-84
2023/12/22 01:36:01;;;;;;;;;;;4.20;57.80;;;;;;5159767;23;20256;-84
2023/12/22 01:38:21;;;;;;;;;;;4.20;57.90;;;;;;5158876;23;19914;-85
2023/12/22 01:40:42;;;;;;;;;;;4.20;58.00;;;;;;5159265;23;19982;-85
2023/12/22 01:43:03;;;;;;;;;;;4.20;58.50;;;;;;5160242;23;19903;-84
2023/12/22 01:45:13;;;;;;;;;;;4.30;58.70;;;;;;5159710;23;19903;-83
2023/12/22 01:47:34;;;;;;;;;;;4.30;58.80;;;;;;5160362;23;19972;-83
2023/12/22 01:49:54;;;;;;;;;;;4.30;59.20;;;;;;5138468;23;19908;-84
2023/12/22 01:52:15;;;;;;;;;;;4.30;59.30;;;;;;5152263;23;19908;-85
2023/12/22 01:54:36;;;;;;;;;;;4.30;59.50;;;;;;5157971;23;19957;-84
2023/12/22 01:56:56;;;;;;;;;;;4.30;59.50;;;;;;5158756;23;19982;-85
2023/12/22 01:59:17;;;;;;;;;;;4.40;59.60;;;;;;5163940;23;19927;-84
2023/12/22 02:01:38;;;;;;;;;;;4.30;59.60;;;;;;5160681;23;19907;-82
2023/12/22 02:03:59;;;;;;;;;;;4.40;60.30;;;;;;5158850;23;19915;-83
2023/12/22 02:05:59;;;;;;;;;;;4.50;59.90;;;;;;5160715;23;19956;-84
2023/12/22 02:08:00;;;;;;;;;;;4.30;59.50;;;;;;5158551;23;19911;-82
2023/12/22 02:10:03;;;;;;;;;;;4.40;59.90;;;;;;5135991;23;19958;-84
2023/12/22 02:12:04;;;;;;;;;;;4.40;59.80;;;;;;5110857;23;19908;-84
2023/12/22 02:14:24;;;;;;;;;;;4.40;59.80;;;;;;5157438;23;20267;-84
2023/12/22 02:16:30;;;;;;;;;;;4.30;59.70;;;;;;5132180;23;20742;-84
2023/12/22 02:18:53;;;;;;;;;;;4.30;59.50;;;;;;5137636;23;19971;-84
2023/12/22 02:21:14;;;;;;;;;;;4.40;59.70;;;;;;5157642;23;19919;-84
2023/12/22 02:23:34;;;;;;;;;;;4.30;59.60;;;;;;5159868;23;19908;-83
2023/12/22 02:25:57;;;;;;;;;;;4.20;63.50;;;;;;5158015;23;19916;-82
2023/12/22 02:28:20;;;;;;;;;;;4.00;64.70;;;;;;5161447;22;19914;-84
2023/12/22 02:30:52;;;;;;;;;;;3.80;65.50;;;;;;5161611;23;19910;-84
2023/12/22 02:33:14;;;;;;;;;;;3.80;66.00;;;;;;5163918;23;19900;-83
2023/12/22 02:35:36;;;;;;;;;;;3.70;66.20;;;;;;5163309;23;19915;-83
2023/12/22 02:37:57;;;;;;;;;;;3.60;65.90;;;;;;5141455;23;19936;-85
2023/12/22 02:40:19;;;;;;;;;;;3.50;65.40;;;;;;5164267;23;19912;-83
2023/12/22 02:42:40;;;;;;;;;;;3.50;65.10;;;;;;5161411;23;19974;-82
2023/12/22 02:44:40;;;;;;;;;;;3.40;64.90;;;;;;5136078;23;19908;-83
2023/12/22 02:46:43;;;;;;;;;;;3.30;65.00;;;;;;5161668;23;19990;-84
2023/12/22 02:48:44;;;;;;;;;;;3.30;64.80;;;;;;5163296;23;20026;-84
2023/12/22 02:50:44;;;;;;;;;;;3.20;65.00;;;;;;5136069;23;19908;-82
2023/12/22 02:52:45;;;;;;;;;;;3.20;65.10;;;;;;5161871;23;19918;-82
2023/12/22 02:54:47;;;;;;;;;;;3.20;65.50;;;;;;5136986;23;19912;-83
2023/12/22 02:56:48;;;;;;;;;;;3.10;65.70;;;;;;5161136;23;19904;-83
2023/12/22 02:58:48;;;;;;;;;;;3.10;66.20;;;;;;5160992;23;20069;-83
2023/12/22 03:00:49;;;;;;;;;;;3.10;66.60;;;;;;5139537;23;19931;-83
2023/12/22 03:03:09;;;;;;;;;;;3.00;66.80;;;;;;5164525;23;20716;-84
2023/12/22 03:05:26;;;;;;;;;;;3.10;67.30;;;;;;5138062;23;19915;-83
2023/12/22 03:07:47;;;;;;;;;;;3.10;67.70;;;;;;5165716;23;19938;-83
2023/12/22 03:10:07;;;;;;;;;;;3.10;68.30;;;;;;5162891;23;19926;-84
2023/12/22 03:12:28;;;;;;;;;;;3.10;68.50;;;;;;5161461;23;19927;-83
2023/12/22 03:14:48;;;;;;;;;;;3.10;68.70;;;;;;5159888;23;19955;-82
2023/12/22 03:17:10;;;;;;;;;;;3.10;69.00;;;;;;5159597;23;19930;-82
2023/12/22 03:19:31;;;;;;;;;;;3.20;69.30;;;;;;5162283;23;19928;-83
2023/12/22 03:21:52;;;;;;;;;;;3.20;69.30;;;;;;5159715;22;19954;-82
2023/12/22 03:24:12;;;;;;;;;;;3.20;69.50;;;;;;5160072;23;19908;-83
2023/12/22 03:26:33;;;;;;;;;;;3.20;69.90;;;;;;5136535;23;19908;-84
2023/12/22 03:28:54;;;;;;;;;;;3.20;70.30;;;;;;5158266;23;19958;-82
2023/12/22 03:31:14;;;;;;;;;;;3.20;69.40;;;;;;5160115;23;19918;-82
2023/12/22 03:33:35;;;;;;;;;;;3.20;69.20;;;;;;5162349;23;20510;-83
2023/12/22 03:35:55;;;;;;;;;;;3.20;68.70;;;;;;5170670;23;19922;-84
2023/12/22 03:38:16;;;;;;;;;;;3.20;68.30;;;;;;5162719;23;20417;-83
2023/12/22 03:40:36;;;;;;;;;;;3.20;67.80;;;;;;5164220;23;20067;-84
2023/12/22 03:42:57;;;;;;;;;;;3.20;67.40;;;;;;5162367;23;19912;-82
2023/12/22 03:45:18;;;;;;;;;;;3.30;67.10;;;;;;5162764;23;20317;-82
2023/12/22 03:47:38;;;;;;;;;;;3.30;66.60;;;;;;5162335;23;19908;-83
2023/12/22 03:49:59;;;;;;;;;;;3.30;66.00;;;;;;5164549;23;19907;-82
2023/12/22 03:52:20;;;;;;;;;;;3.40;65.70;;;;;;5162233;23;19907;-82
2023/12/22 03:54:40;;;;;;;;;;;3.40;65.50;;;;;;5159159;23;19903;-82
2023/12/22 03:57:01;;;;;;;;;;;3.40;65.50;;;;;;5158700;23;19907;-82
2023/12/22 03:59:21;;;;;;;;;;;3.40;65.70;;;;;;5162775;23;19955;-85
2023/12/22 04:01:22;;;;;;;;;;;3.40;65.90;;;;;;5161894;23;19908;-83
2023/12/22 04:03:22;;;;;;;;;;;3.40;66.10;;;;;;5161892;23;19918;-83
2023/12/22 04:05:23;;;;;;;;;;;3.40;66.20;;;;;;5162546;23;19914;-82
2023/12/22 04:07:43;;;;;;;;;;;3.30;66.00;;;;;;5163468;23;19963;-83
2023/12/22 04:09:44;;;;;;;;;;;3.30;66.00;;;;;;5162931;23;20156;-83
2023/12/22 04:11:45;;;;;;;;;;;3.40;66.10;;;;;;5162893;23;19943;-82
2023/12/22 04:13:58;;;;;;;;;;;3.30;66.00;;;;;;5139751;23;19903;-82
2023/12/22 04:16:19;;;;;;;;;;;3.40;65.80;;;;;;5162912;23;19908;-83
2023/12/22 04:18:39;;;;;;;;;;;3.40;65.20;;;;;;5163139;23;19978;-82
2023/12/22 04:21:00;;;;;;;;;;;3.30;64.60;;;;;;5165220;23;19907;-82
2023/12/22 04:23:01;;;;;;;;;;;3.30;63.70;;;;;;5136055;23;19935;-81
2023/12/22 04:25:23;;;;;;;;;;;3.30;63.40;;;;;;5161329;23;19959;-83
2023/12/22 04:27:43;;;;;;;;;;;3.30;63.20;;;;;;5162636;23;19953;-83
2023/12/22 04:30:04;;;;;;;;;;;3.30;61.90;;;;;;5160859;23;19908;-81
2023/12/22 04:32:24;;;;;;;;;;;3.30;61.50;;;;;;5161333;23;19903;-83
2023/12/22 04:34:45;;;;;;;;;;;3.30;61.10;;;;;;5158719;23;19990;-82
2023/12/22 04:37:06;;;;;;;;;;;3.40;60.40;;;;;;5159794;23;19911;-84
2023/12/22 04:39:26;;;;;;;;;;;3.40;60.40;;;;;;5157837;23;19915;-85
2023/12/22 04:41:47;;;;;;;;;;;3.30;60.40;;;;;;5161585;23;19912;-85
2023/12/22 04:44:07;;;;;;;;;;;3.30;60.90;;;;;;5161379;23;19922;-85
2023/12/22 04:46:28;;;;;;;;;;;3.30;61.50;;;;;;5158203;23;19900;-84
2023/12/22 04:48:29;;;;;;;;;;;3.30;62.10;;;;;;5158621;23;19908;-82
2023/12/22 04:50:29;;;;;;;;;;;3.40;62.60;;;;;;5159636;23;20192;-82
2023/12/22 04:52:30;;;;;;;;;;;3.40;62.90;;;;;;5159737;23;19981;-84
2023/12/22 04:54:31;;;;;;;;;;;3.50;63.30;;;;;;5161788;23;19904;-83
2023/12/22 04:56:34;;;;;;;;;;;3.40;63.50;;;;;;5159873;23;19907;-83
2023/12/22 04:58:54;;;;;;;;;;;3.50;63.80;;;;;;5163271;23;19904;-84
2023/12/22 05:01:02;;;;;;;;;;;3.50;64.10;;;;;;5160685;23;19900;-85
2023/12/22 05:03:22;;;;;;;;;;;3.50;64.60;;;;;;5160787;23;19936;-83
2023/12/22 05:05:43;;;;;;;;;;;3.40;64.70;;;;;;5162260;23;19900;-85
2023/12/22 05:08:04;;;;;;;;;;;3.40;64.80;;;;;;5161932;23;20224;-85
2023/12/22 05:10:24;;;;;;;;;;;3.40;63.70;;;;;;5161903;23;19915;-83
2023/12/22 05:12:45;;;;;;;;;;;3.40;63.70;;;;;;5168494;23;19908;-83
2023/12/22 05:15:05;;;;;;;;;;;3.40;63.90;;;;;;5162908;23;19911;-83
2023/12/22 05:17:26;;;;;;;;;;;3.50;64.00;;;;;;5161291;23;19927;-83
2023/12/22 05:19:47;;;;;;;;;;;3.50;64.10;;;;;;5164619;23;19930;-84
2023/12/22 05:22:07;;;;;;;;;;;3.40;64.30;;;;;;5161946;23;19907;-83
2023/12/22 05:24:28;;;;;;;;;;;3.40;64.50;;;;;;5161398;23;19927;-84
2023/12/22 05:26:30;;;;;;;;;;;3.40;64.50;;;;;;5137471;23;19984;-84
2023/12/22 05:28:30;;;;;;;;;;;3.40;64.60;;;;;;5138123;23;19904;-83
2023/12/22 05:30:31;;;;;;;;;;;3.40;64.60;;;;;;5116205;23;20372;-84
2023/12/22 05:32:38;;;;;;;;;;;3.40;64.80;;;;;;5162433;23;19955;-82
2023/12/22 05:34:59;;;;;;;;;;;3.40;64.80;;;;;;5160309;23;19908;-84
2023/12/22 05:37:00;;;;;;;;;;;3.40;65.10;;;;;;5134162;23;20307;-83
2023/12/22 05:39:21;;;;;;;;;;;3.40;65.40;;;;;;5160154;23;19907;-83
2023/12/22 05:41:42;;;;;;;;;;;3.40;65.70;;;;;;5167089;23;19943;-85
2023/12/22 05:44:02;;;;;;;;;;;3.40;65.90;;;;;;5160561;23;19930;-83
2023/12/22 05:46:23;;;;;;;;;;;3.40;66.30;;;;;;5165518;23;19914;-83
2023/12/22 05:48:43;;;;;;;;;;;3.40;66.70;;;;;;5159968;23;19910;-84
2023/12/22 05:51:07;;;;;;;;;;;3.40;67.00;;;;;;5158800;23;19904;-84
2023/12/22 05:53:27;;;;;;;;;;;3.40;67.40;;;;;;5161999;23;19899;-84
2023/12/22 05:55:48;;;;;;;;;;;3.30;67.90;;;;;;5160646;23;19948;-84
2023/12/22 05:58:09;;;;;;;;;;;3.30;68.20;;;;;;5164317;23;19922;-83
2023/12/22 06:00:29;;;;;;;;;;;3.30;68.30;;;;;;5166041;23;19937;-83
2023/12/22 06:02:50;;;;;;;;;;;3.40;68.20;;;;;;5136571;23;19915;-84
2023/12/22 06:04:50;;;;;;;;;;;3.40;68.20;;;;;;5160529;23;19911;-85
2023/12/22 06:06:52;;;;;;;;;;;3.40;68.30;;;;;;5133869;23;19908;-83
2023/12/22 06:08:52;;;;;;;;;;;3.40;68.90;;;;;;5134535;23;20567;-85
2023/12/22 06:10:53;;;;;;;;;;;3.30;70.50;;;;;;5158652;23;20232;-85
2023/12/22 06:12:54;;;;;;;;;;;3.30;72.10;;;;;;5133032;23;20491;-83
2023/12/22 06:14:55;;;;;;;;;;;3.20;73.30;;;;;;5181853;22;19911;-83
2023/12/22 06:17:03;;;;;;;;;;;3.10;73.60;;;;;;5158749;23;19908;-83
2023/12/22 06:19:28;;;;;;;;;;;3.00;73.50;;;;;;5160077;23;19951;-83
2023/12/22 06:21:49;;;;;;;;;;;2.90;73.30;;;;;;5160950;23;20268;-84
2023/12/22 06:24:09;;;;;;;;;;;2.80;73.10;;;;;;5161457;23;19947;-85
2023/12/22 06:26:30;;;;;;;;;;;2.70;73.40;;;;;;5166925;23;19908;-83
2023/12/22 06:28:50;;;;;;;;;;;2.60;73.60;;;;;;5165010;23;19919;-83
2023/12/22 06:31:18;;;;;;;;;;;2.50;73.60;;;;;;5155041;23;19916;-84
2023/12/22 06:33:39;;;;;;;;;;;2.50;73.70;;;;;;5167242;23;19903;-84
2023/12/22 06:35:59;;;;;;;;;;;2.40;73.70;;;;;;5164045;23;19912;-85
2023/12/22 06:38:20;;;;;;;;;;;2.40;73.50;;;;;;5162410;23;19993;-83
2023/12/22 06:40:40;;;;;;;;;;;2.30;73.30;;;;;;5163831;23;19965;-84
2023/12/22 06:43:01;;;;;;;;;;;2.30;73.30;;;;;;5160827;23;19915;-82
2023/12/22 06:45:22;;;;;;;;;;;2.30;73.10;;;;;;5161418;23;19907;-82
2023/12/22 06:47:42;;;;;;;;;;;2.30;72.90;;;;;;5162166;23;19907;-84
2023/12/22 06:50:03;;;;;;;;;;;2.30;73.00;;;;;;5162865;23;19907;-83
2023/12/22 06:52:24;;;;;;;;;;;2.30;73.00;;;;;;5139354;23;19904;-83
2023/12/22 06:54:44;;;;;;;;;;;2.40;73.20;;;;;;5164888;23;19907;-83
2023/12/22 06:57:05;;;;;;;;;;;2.40;73.10;;;;;;5163581;23;19908;-84
2023/12/22 06:59:05;;;;;;;;;;;2.40;72.90;;;;;;5136606;23;20019;-84
2023/12/22 07:01:06;;;;;;;;;;;2.40;72.80;;;;;;5160862;23;20006;-83
2023/12/22 07:03:07;;;;;;;;;;;2.40;73.00;;;;;;5161819;23;20686;-84
2023/12/22 07:05:20;;;;;;;;;;;2.40;73.00;;;;;;5166595;23;19928;-83
2023/12/22 07:07:23;;;;;;;;;;;2.40;73.30;;;;;;5165667;23;19935;-83
2023/12/22 07:09:43;;;;;;;;;;;2.40;73.50;;;;;;5159901;23;20154;-83
2023/12/22 07:12:04;;;;;;;;;;;2.40;73.60;;;;;;5165827;23;19915;-84
2023/12/22 07:14:25;;;;;;;;;;;2.40;73.50;;;;;;5166268;23;19907;-84
2023/12/22 07:16:45;;;;;;;;;;;2.50;73.40;;;;;;5163254;23;19911;-83
2023/12/22 07:19:06;;;;;;;;;;;2.50;73.20;;;;;;5164623;23;19918;-83
2023/12/22 07:21:26;;;;;;;;;;;2.50;73.10;;;;;;5165519;23;19903;-83
2023/12/22 07:23:47;;;;;;;;;;;2.50;73.00;;;;;;5165862;23;19912;-83
2023/12/22 07:26:07;;;;;;;;;;;2.40;72.80;;;;;;5167363;23;19910;-84
2023/12/22 07:28:28;;;;;;;;;;;2.40;72.70;;;;;;5163899;23;20282;-83
2023/12/22 07:30:49;;;;;;;;;;;2.40;72.60;;;;;;5163619;23;20355;-83
2023/12/22 07:33:09;;;;;;;;;;;2.40;72.30;;;;;;5165519;23;19896;-83
2023/12/22 07:35:30;;;;;;;;;;;2.40;72.10;;;;;;5166639;23;19903;-82
2023/12/22 07:37:50;;;;;;;;;;;2.40;72.00;;;;;;5165743;23;19950;-82
2023/12/22 07:40:11;;;;;;;;;;;2.40;72.00;;;;;;5164626;23;19912;-84
2023/12/22 07:42:32;;;;;;;;;;;2.50;72.30;;;;;;5164532;23;19904;-83
2023/12/22 07:44:49;;;;;;;;;;;2.50;72.70;;;;;;5140497;23;19936;-84
2023/12/22 07:47:10;;;;;;;;;;;2.50;73.00;;;;;;5166009;23;19911;-84
2023/12/22 07:49:31;;;;;;;;;;;2.50;73.20;;;;;;5165603;23;19903;-84
2023/12/22 07:51:52;;;;;;;;;;;2.70;73.20;;;;;;5167486;23;19907;-83
2023/12/22 07:54:12;;;;;;;;;;;2.60;73.10;;;;;;5168007;22;19969;-83
2023/12/22 07:56:33;;;;;;;;;;;2.60;73.10;;;;;;5167510;23;19982;-85
2023/12/22 07:58:53;;;;;;;;;;;2.70;73.00;;;;;;5167084;23;19911;-84
2023/12/22 08:01:15;;;;;;;;;;;2.80;73.00;;;;;;5164613;23;19912;-84
2023/12/22 08:03:37;;;;;;;;;;;2.70;72.60;;;;;;5166143;23;19922;-84
2023/12/22 08:05:57;;;;;;;;;;;2.70;72.60;;;;;;5168362;23;19915;-84
2023/12/22 08:08:18;;;;;;;;;;;2.80;72.50;;;;;;5167216;23;20218;-84
2023/12/22 08:10:38;;;;;;;;;;;2.80;72.50;;;;;;5166060;23;19922;-84
2023/12/22 08:12:59;;;;;;;;;;;2.70;72.30;;;;;;5165505;23;19986;-84
2023/12/22 08:15:19;;;;;;;;;;;2.70;72.30;;;;;;5166069;23;19907;-84
2023/12/22 08:17:47;;;;;;;;;;;2.70;72.20;;;;;;5165328;23;19908;-84
2023/12/22 08:20:08;;;;;;;;;;;2.70;72.10;;;;;;5164363;23;19954;-82
2023/12/22 08:22:15;;;;;;;;;;;2.80;72.20;;;;;;5168364;23;19908;-83
2023/12/22 08:24:15;;;;;;;;;;;2.80;72.10;;;;;;5167548;23;19912;-82
2023/12/22 08:26:19;;;;;;;;;;;2.90;71.90;;;;;;5165254;23;20261;-85
2023/12/22 08:28:20;;;;;;;;;;;2.80;71.50;;;;;;5141069;23;19931;-85
2023/12/22 08:30:20;;;;;;;;;;;2.90;71.50;;;;;;5168841;23;19951;-84
2023/12/22 08:32:27;;;;;;;;;;;2.90;71.30;;;;;;5142592;23;20234;-84
2023/12/22 08:34:28;;;;;;;;;;;2.90;71.10;;;;;;5169115;23;20347;-85
2023/12/22 08:36:28;;;;;;;;;;;2.90;70.80;;;;;;5169822;23;19903;-84
2023/12/22 08:38:49;;;;;;;;;;;2.90;70.40;;;;;;5169966;23;19914;-84
2023/12/22 08:41:11;;;;;;;;;;;2.90;69.80;;;;;;5168523;23;19935;-84
2023/12/22 08:43:32;;;;;;;;;;;2.90;69.60;;;;;;5167818;23;19911;-84
2023/12/22 08:45:52;;;;;;;;;;;2.90;69.20;;;;;;5146526;23;19936;-84
2023/12/22 08:48:13;;;;;;;;;;;2.90;68.90;;;;;;5167268;23;19907;-85
2023/12/22 08:50:34;;;;;;;;;;;2.90;69.10;;;;;;5170610;23;19912;-83
2023/12/22 08:52:55;;;;;;;;;;;2.90;68.90;;;;;;5167424;23;19979;-83
2023/12/22 08:55:16;;;;;;;;;;;2.90;68.70;;;;;;5167348;23;19907;-85
2023/12/22 08:57:36;;;;;;;;;;;3.00;68.70;;;;;;5145428;23;19903;-85
2023/12/22 08:59:57;;;;;;;;;;;3.00;68.80;;;;;;5167616;23;20303;-84
2023/12/22 09:02:17;;;;;;;;;;;3.00;68.90;;;;;;5166824;23;19982;-83
2023/12/22 09:04:25;;;;;;;;;;;3.00;68.70;;;;;;5166069;23;20286;-85
2023/12/22 09:06:25;;;;;;;;;;;3.00;68.80;;;;;;5141760;23;19964;-83
2023/12/22 09:08:26;;;;;;;;;;;3.00;68.80;;;;;;5168464;23;19947;-85
2023/12/22 09:10:27;;;;;;;;;;;3.00;68.90;;;;;;5143790;23;19908;-84
2023/12/22 09:12:47;;;;;;;;;;;3.10;69.10;;;;;;5169139;23;19907;-84
2023/12/22 09:15:08;;;;;;;;;;;3.10;69.30;;;;;;5167621;23;20395;-84
2023/12/22 09:17:18;;;;;;;;;;;3.10;69.50;;;;;;5168013;23;19903;-84
2023/12/22 09:19:40;;;;;;;;;;;3.10;69.80;;;;;;5167609;23;19962;-84
2023/12/22 09:22:00;;;;;;;;;;;3.10;70.10;;;;;;5167249;23;19982;-82
2023/12/22 09:24:21;;;;;;;;;;;3.10;70.30;;;;;;5169464;23;19935;-84
2023/12/22 09:26:41;;;;;;;;;;;3.20;70.50;;;;;;5168573;23;19965;-85
2023/12/22 09:29:02;;;;;;;;;;;3.20;70.70;;;;;;5166624;23;19908;-82
2023/12/22 09:31:22;;;;;;;;;;;3.10;70.40;;;;;;5166353;23;19978;-84
2023/12/22 09:33:24;;;;;;;;;;;3.10;70.20;;;;;;5145268;23;19926;-84
2023/12/22 09:35:44;;;;;;;;;;;3.10;69.90;;;;;;5168573;23;19907;-83
2023/12/22 09:38:00;;;;;;;;;;;3.10;69.60;;;;;;5168300;23;19907;-84
2023/12/22 09:40:22;;;;;;;;;;;3.10;69.40;;;;;;5167775;23;19938;-86
2023/12/22 09:42:43;;;;;;;;;;;3.10;69.40;;;;;;5168113;23;19904;-84
2023/12/22 09:45:05;;;;;;;;;;;3.10;69.20;;;;;;5166577;23;19911;-85
2023/12/22 09:47:29;;;;;;;;;;;3.10;69.00;;;;;;5164910;23;19994;-84
2023/12/22 09:49:50;;;;;;;;;;;3.10;69.00;;;;;;5168122;23;19918;-84
2023/12/22 09:52:11;;;;;;;;;;;3.20;69.20;;;;;;5146959;23;19904;-84
2023/12/22 09:54:32;;;;;;;;;;;3.20;68.80;;;;;;5167357;23;19915;-84
2023/12/22 09:56:53;;;;;;;;;;;3.30;68.80;;;;;;5163105;23;19904;-85
2023/12/22 09:58:55;;;;;;;;;;;3.30;68.70;;;;;;5164835;23;19927;-84
2023/12/22 10:00:56;;;;;;;;;;;3.20;68.40;;;;;;5140577;23;19927;-85
2023/12/22 10:02:57;;;;;;;;;;;3.20;68.40;;;;;;5162616;23;20213;-83
2023/12/22 10:04:58;;;;;;;;;;;3.30;68.40;;;;;;5136265;23;19912;-84
2023/12/22 10:07:01;;;;;;;;;;;3.30;68.30;;;;;;5163476;23;19912;-85
2023/12/22 10:09:18;;;;;;;;;;;3.30;68.10;;;;;;5163514;23;19915;-82
2023/12/22 10:11:39;;;;;;;;;;;3.30;67.80;;;;;;5143736;23;19908;-85
2023/12/22 10:14:00;;;;;;;;;;;3.20;67.70;;;;;;5164562;23;19959;-82
2023/12/22 10:16:21;;;;;;;;;;;3.30;67.60;;;;;;5163766;23;19955;-84
2023/12/22 10:18:41;;;;;;;;;;;3.40;67.50;;;;;;5168882;23;19908;-84
2023/12/22 10:21:02;;;;;;;;;;;3.40;66.90;;;;;;5169303;23;19955;-83
2023/12/22 10:23:23;;;;;;;;;;;3.40;66.50;;;;;;5169087;23;19922;-85
2023/12/22 10:25:43;;;;;;;;;;;3.40;67.30;;;;;;5169127;23;19903;-85
2023/12/22 10:28:04;;;;;;;;;;;3.40;69.00;;;;;;5168533;23;19912;-84
2023/12/22 10:30:25;;;;;;;;;;;3.40;69.70;;;;;;5168238;23;19986;-83
2023/12/22 10:32:45;;;;;;;;;;;3.40;69.60;;;;;;5170867;23;19955;-83
2023/12/22 10:34:46;;;;;;;;;;;3.40;69.80;;;;;;5169706;23;20247;-84
2023/12/22 10:36:46;;;;;;;;;;;3.30;70.30;;;;;;5168061;23;20255;-83
2023/12/22 10:38:47;;;;;;;;;;;3.20;70.40;;;;;;5166915;23;20339;-82
2023/12/22 10:41:07;;;;;;;;;;;3.20;70.40;;;;;;5169543;23;19946;-84
2023/12/22 10:43:28;;;;;;;;;;;3.20;70.80;;;;;;5166832;23;19911;-83
2023/12/22 10:45:51;;;;;;;;;;;3.10;70.80;;;;;;5170187;23;20296;-84
2023/12/22 10:48:11;;;;;;;;;;;3.00;70.70;;;;;;5172483;23;19910;-83
2023/12/22 10:50:32;;;;;;;;;;;3.00;70.60;;;;;;5170970;23;19938;-83
2023/12/22 10:52:53;;;;;;;;;;;3.00;70.30;;;;;;5166696;23;19911;-84
2023/12/22 10:55:15;;;;;;;;;;;3.00;70.30;;;;;;5165464;23;19903;-85
2023/12/22 10:57:38;;;;;;;;;;;3.00;70.30;;;;;;5168244;23;19934;-83
2023/12/22 10:59:59;;;;;;;;;;;3.00;70.30;;;;;;5166206;23;19907;-84
2023/12/22 11:02:19;;;;;;;;;;;3.00;70.10;;;;;;5165438;23;19983;-83
2023/12/22 11:04:56;;;;;;;;;;;2.90;70.50;;;;;;5168205;23;19971;-82
2023/12/22 11:07:19;;;;;;;;;;;2.90;69.80;;;;;;5165649;23;19918;-83
2023/12/22 11:09:43;;;;;;;;;;;2.90;70.00;;;;;;5145962;23;19908;-85
2023/12/22 11:12:05;;;;;;;;;;;2.90;69.90;;;;;;5164922;23;20331;-84
2023/12/22 11:14:26;;;;;;;;;;;3.00;70.10;;;;;;5168069;22;19908;-85
2023/12/22 11:16:48;;;;;;;;;;;3.00;69.90;;;;;;5139264;23;19908;-83
2023/12/22 11:19:09;;;;;;;;;;;2.90;69.70;;;;;;5165790;23;19910;-84
2023/12/22 11:21:30;;;;;;;;;;;3.00;69.90;;;;;;5168059;23;19899;-85
2023/12/22 11:23:51;;;;;;;;;;;3.00;70.10;;;;;;5167333;23;19962;-84
2023/12/22 11:26:12;;;;;;;;;;;3.00;69.80;;;;;;5141963;23;19955;-84
2023/12/22 11:28:33;;;;;;;;;;;3.00;69.50;;;;;;5167114;23;19947;-84
2023/12/22 11:30:54;;;;;;;;;;;3.10;69.50;;;;;;5167346;23;19966;-84
2023/12/22 11:33:16;;;;;;;;;;;3.10;70.10;;;;;;5168119;23;19904;-83
2023/12/22 11:35:36;;;;;;;;;;;3.10;69.20;;;;;;5165877;23;19939;-83
2023/12/22 11:38:34;;;;;;;;;;;3.10;69.40;;;;;;5169651;23;19907;-86
2023/12/22 11:40:55;;;;;;;;;;;3.10;69.30;;;;;;5168952;23;19923;-84
2023/12/22 11:43:16;;;;;;;;;;;3.20;69.30;;;;;;5174291;23;19911;-85
2023/12/22 11:45:37;;;;;;;;;;;3.20;69.30;;;;;;5169898;23;19916;-85
2023/12/22 11:53:34;;;;;;;;;;;3.40;69.10;;;;;;5038830;23;19909;-85
2023/12/22 11:55:53;;;;;;;;;;;3.50;68.90;;;;;;5106582;23;19903;-85
2023/12/22 11:57:56;;;;;;;;;;;3.50;68.70;;;;;;5166403;23;19907;-84
2023/12/22 11:59:57;;;;;;;;;;;3.50;68.60;;;;;;5163841;23;19904;-84
2023/12/22 12:01:58;;;;;;;;;;;3.60;68.60;;;;;;5164695;23;19907;-85
2023/12/22 12:04:03;;;;;;;;;;;3.60;68.50;;;;;;5163356;23;20369;-84
2023/12/22 12:06:30;;;;;;;;;;;3.70;68.50;;;;;;5166275;23;19926;-85
2023/12/22 12:08:53;;;;;;;;;;;3.70;68.80;;;;;;5164107;23;20284;-83
2023/12/22 12:11:03;;;;;;;;;;;3.70;68.90;;;;;;5138081;23;19956;-84
2023/12/22 12:13:27;;;;;;;;;;;3.80;69.00;;;;;;5163434;23;19934;-84
2023/12/22 12:15:48;;;;;;;;;;;3.80;69.00;;;;;;5163444;23;19914;-84
2023/12/22 12:18:08;;;;;;;;;;;3.80;69.00;;;;;;5162753;23;19907;-84
2023/12/22 12:20:29;;;;;;;;;;;3.80;69.20;;;;;;5162369;23;19907;-85
2023/12/22 12:22:50;;;;;;;;;;;3.80;69.20;;;;;;5164750;23;19907;-84
2023/12/22 12:25:11;;;;;;;;;;;3.80;69.20;;;;;;5158365;23;19918;-84
2023/12/22 12:27:49;;;;;;;;;;;3.80;69.10;;;;;;5159693;23;19907;-84
2023/12/22 12:30:13;;;;;;;;;;;3.80;69.10;;;;;;5163748;23;19907;-84
2023/12/22 12:32:35;;;;;;;;;;;3.80;68.40;;;;;;5164183;23;19907;-85
2023/12/22 12:34:56;;;;;;;;;;;3.80;68.50;;;;;;5165181;23;19946;-85
2023/12/22 12:37:26;;;;;;;;;;;;;;;;;;;;;
2023/12/22 12:39:48;;;;;;;;;;;3.80;69.00;;;;;;5164505;23;19907;-84
2023/12/22 12:42:13;;;;;;;;;;;3.80;69.30;;;;;;5164920;23;20252;-84
2023/12/22 12:44:34;;;;;;;;;;;3.80;69.90;;;;;;5166985;23;19916;-84
2023/12/22 12:46:55;;;;;;;;;;;3.80;70.80;;;;;;5165197;23;19915;-85
2023/12/22 12:49:15;;;;;;;;;;;3.80;71.00;;;;;;5164758;23;19914;-84
2023/12/22 12:51:17;;;;;;;;;;;3.80;71.30;;;;;;5162909;23;19907;-85
2023/12/22 12:53:18;;;;;;;;;;;3.80;71.60;;;;;;5168665;23;19904;-85
2023/12/22 12:55:22;;;;;;;;;;;3.90;71.70;;;;;;5165252;23;20090;-85
2023/12/22 12:57:23;;;;;;;;;;;3.80;71.60;;;;;;5164633;23;19908;-86
2023/12/22 12:59:44;;;;;;;;;;;3.90;71.60;;;;;;5163190;23;19908;-84
2023/12/22 13:01:45;;;;;;;;;;;3.80;71.30;;;;;;5166247;23;19903;-84
2023/12/22 13:04:06;;;;;;;;;;;3.80;71.30;;;;;;5168741;23;19946;-84
2023/12/22 13:06:27;;;;;;;;;;;3.80;71.20;;;;;;5162802;23;19908;-84
2023/12/22 13:08:56;;;;;;;;;;;3.80;71.10;;;;;;5163504;23;19973;-85
2023/12/22 13:11:22;;;;;;;;;;;3.70;71.00;;;;;;5164166;23;20006;-84
2023/12/22 13:13:42;;;;;;;;;;;3.80;71.00;;;;;;5160557;23;20268;-85
2023/12/22 13:16:03;;;;;;;;;;;3.80;70.90;;;;;;5161333;23;19930;-85
2023/12/22 13:18:24;;;;;;;;;;;3.80;70.60;;;;;;5161862;23;19915;-85
2023/12/22 13:20:44;;;;;;;;;;;3.80;70.40;;;;;;5159448;23;19915;-84
2023/12/22 13:23:05;;;;;;;;;;;3.70;70.20;;;;;;5161035;23;19911;-84
2023/12/22 13:25:26;;;;;;;;;;;3.80;70.10;;;;;;5161721;23;19923;-84
2023/12/22 13:27:49;;;;;;;;;;;3.70;69.80;;;;;;5158222;23;19911;-83
2023/12/22 13:29:52;;;;;;;;;;;3.70;69.70;;;;;;5162160;23;19927;-84